Terminal Aerodrome Forecast
Issued by NWS

Home | Current Version | Previous Version | Text Only | Print | Product List | Glossary On
Versions: 1 2 3 4 5 6 7 8 9 10 11 12 13 14
000
FTUS46 KMTR 021100
TAFSNS
TAF
KSNS 021137Z 0212/0312 14006KT P6SM FEW150
     FM021600 13011KT P6SM BKN120
     FM022000 27009KT P6SM VCSH SCT040 BKN100
     FM030300 12004KT P6SM SKC=

USA.gov is the U.S. government's official web portal to all federal, state and local government web resources and services.